sensor_id;sensor_type;location;lat;lon;timestamp;P1;durP1;ratioP1;P2;durP2;ratioP2
11245;SDS011;59870;50.106;8.580;2023-02-28T00:01:25;5.30;;;4.90;;
11245;SDS011;59870;50.106;8.580;2023-02-28T00:03:53;4.40;;;4.10;;
11245;SDS011;59870;50.106;8.580;2023-02-28T00:06:21;4.90;;;4.60;;
11245;SDS011;59870;50.106;8.580;2023-02-28T00:08:48;4.77;;;4.40;;
11245;SDS011;59870;50.106;8.580;2023-02-28T00:11:15;4.80;;;4.43;;
11245;SDS011;59870;50.106;8.580;2023-02-28T00:13:44;4.30;;;4.00;;
11245;SDS011;59870;50.106;8.580;2023-02-28T00:16:19;4.40;;;4.00;;
11245;SDS011;59870;50.106;8.580;2023-02-28T00:18:48;4.80;;;4.40;;
11245;SDS011;59870;50.106;8.580;2023-02-28T00:21:16;3.97;;;3.70;;
11245;SDS011;59870;50.106;8.580;2023-02-28T00:23:46;4.77;;;4.37;;
11245;SDS011;59870;50.106;8.580;2023-02-28T00:26:13;4.30;;;4.10;;
11245;SDS011;59870;50.106;8.580;2023-02-28T00:28:44;4.77;;;4.33;;
11245;SDS011;59870;50.106;8.580;2023-02-28T00:31:11;5.40;;;5.10;;
11245;SDS011;59870;50.106;8.580;2023-02-28T00:33:39;4.17;;;3.83;;
11245;SDS011;59870;50.106;8.580;2023-02-28T00:36:07;4.63;;;4.33;;
11245;SDS011;59870;50.106;8.580;2023-02-28T00:38:36;4.87;;;4.10;;
11245;SDS011;59870;50.106;8.580;2023-02-28T00:41:05;5.07;;;4.77;;
11245;SDS011;59870;50.106;8.580;2023-02-28T00:43:33;5.20;;;4.90;;
11245;SDS011;59870;50.106;8.580;2023-02-28T00:46:02;5.13;;;4.63;;
11245;SDS011;59870;50.106;8.580;2023-02-28T00:48:30;6.30;;;5.80;;
11245;SDS011;59870;50.106;8.580;2023-02-28T00:50:58;5.97;;;5.50;;
11245;SDS011;59870;50.106;8.580;2023-02-28T00:53:26;5.50;;;5.10;;
11245;SDS011;59870;50.106;8.580;2023-02-28T00:55:57;5.27;;;4.87;;
11245;SDS011;59870;50.106;8.580;2023-02-28T00:58:26;4.33;;;3.93;;
11245;SDS011;59870;50.106;8.580;2023-02-28T01:00:53;5.93;;;4.67;;
11245;SDS011;59870;50.106;8.580;2023-02-28T01:03:21;6.33;;;5.47;;
11245;SDS011;59870;50.106;8.580;2023-02-28T01:05:50;4.50;;;4.20;;
11245;SDS011;59870;50.106;8.580;2023-02-28T01:08:19;5.00;;;4.33;;
11245;SDS011;59870;50.106;8.580;2023-02-28T01:10:47;4.37;;;4.17;;
11245;SDS011;59870;50.106;8.580;2023-02-28T01:13:14;5.40;;;5.00;;
11245;SDS011;59870;50.106;8.580;2023-02-28T01:15:46;5.30;;;4.90;;
11245;SDS011;59870;50.106;8.580;2023-02-28T01:18:19;4.63;;;4.27;;
11245;SDS011;59870;50.106;8.580;2023-02-28T01:20:47;4.90;;;4.60;;
11245;SDS011;59870;50.106;8.580;2023-02-28T01:23:16;4.93;;;4.63;;
11245;SDS011;59870;50.106;8.580;2023-02-28T01:25:43;5.30;;;5.00;;
11245;SDS011;59870;50.106;8.580;2023-02-28T01:28:10;5.30;;;5.00;;
11245;SDS011;59870;50.106;8.580;2023-02-28T01:30:38;6.17;;;5.07;;
11245;SDS011;59870;50.106;8.580;2023-02-28T01:33:05;4.73;;;4.43;;
11245;SDS011;59870;50.106;8.580;2023-02-28T01:35:33;4.63;;;4.23;;
11245;SDS011;59870;50.106;8.580;2023-02-28T01:38:02;5.97;;;4.70;;
11245;SDS011;59870;50.106;8.580;2023-02-28T01:40:47;5.33;;;5.03;;
11245;SDS011;59870;50.106;8.580;2023-02-28T01:45:56;5.57;;;5.17;;
11245;SDS011;59870;50.106;8.580;2023-02-28T01:48:26;5.60;;;5.10;;
11245;SDS011;59870;50.106;8.580;2023-02-28T01:50:58;5.33;;;5.03;;
11245;SDS011;59870;50.106;8.580;2023-02-28T01:53:31;6.20;;;5.70;;
11245;SDS011;59870;50.106;8.580;2023-02-28T01:56:03;6.07;;;5.67;;
11245;SDS011;59870;50.106;8.580;2023-02-28T01:58:33;5.50;;;5.10;;
11245;SDS011;59870;50.106;8.580;2023-02-28T02:01:02;5.70;;;5.10;;
11245;SDS011;59870;50.106;8.580;2023-02-28T02:03:30;6.10;;;5.70;;
11245;SDS011;59870;50.106;8.580;2023-02-28T02:05:58;5.90;;;5.40;;
11245;SDS011;59870;50.106;8.580;2023-02-28T02:08:26;5.80;;;5.07;;
11245;SDS011;59870;50.106;8.580;2023-02-28T02:10:56;6.67;;;5.83;;
11245;SDS011;59870;50.106;8.580;2023-02-28T02:18:47;5.77;;;5.10;;
11245;SDS011;59870;50.106;8.580;2023-02-28T02:27:11;5.37;;;5.00;;
11245;SDS011;59870;50.106;8.580;2023-02-28T02:35:27;5.43;;;5.13;;
11245;SDS011;59870;50.106;8.580;2023-02-28T02:38:06;5.37;;;4.97;;
11245;SDS011;59870;50.106;8.580;2023-02-28T02:40:39;5.77;;;5.10;;
11245;SDS011;59870;50.106;8.580;2023-02-28T02:43:19;6.33;;;5.83;;
11245;SDS011;59870;50.106;8.580;2023-02-28T02:46:05;5.63;;;5.13;;
11245;SDS011;59870;50.106;8.580;2023-02-28T02:48:40;5.60;;;5.30;;
11245;SDS011;59870;50.106;8.580;2023-02-28T02:51:14;5.20;;;4.80;;
11245;SDS011;59870;50.106;8.580;2023-02-28T02:53:48;5.30;;;5.00;;
11245;SDS011;59870;50.106;8.580;2023-02-28T02:56:23;5.60;;;5.30;;
11245;SDS011;59870;50.106;8.580;2023-02-28T02:58:54;5.80;;;5.30;;
11245;SDS011;59870;50.106;8.580;2023-02-28T03:01:31;6.07;;;5.47;;
11245;SDS011;59870;50.106;8.580;2023-02-28T03:04:03;5.70;;;5.30;;
11245;SDS011;59870;50.106;8.580;2023-02-28T03:06:32;5.17;;;4.80;;
11245;SDS011;59870;50.106;8.580;2023-02-28T03:09:02;5.37;;;4.97;;
11245;SDS011;59870;50.106;8.580;2023-02-28T03:11:31;4.63;;;4.33;;
11245;SDS011;59870;50.106;8.580;2023-02-28T03:17:14;5.00;;;4.60;;
11245;SDS011;59870;50.106;8.580;2023-02-28T03:20:05;5.50;;;5.00;;
11245;SDS011;59870;50.106;8.580;2023-02-28T03:25:44;5.10;;;4.80;;
11245;SDS011;59870;50.106;8.580;2023-02-28T03:28:28;5.00;;;4.60;;
11245;SDS011;59870;50.106;8.580;2023-02-28T03:34:07;5.37;;;5.07;;
11245;SDS011;59870;50.106;8.580;2023-02-28T03:36:55;5.47;;;5.07;;
11245;SDS011;59870;50.106;8.580;2023-02-28T03:39:34;4.90;;;4.60;;
11245;SDS011;59870;50.106;8.580;2023-02-28T03:42:11;4.80;;;4.50;;
11245;SDS011;59870;50.106;8.580;2023-02-28T03:47:48;4.97;;;4.67;;
11245;SDS011;59870;50.106;8.580;2023-02-28T03:50:21;4.83;;;4.53;;
11245;SDS011;59870;50.106;8.580;2023-02-28T03:55:54;5.57;;;5.17;;
11245;SDS011;59870;50.106;8.580;2023-02-28T03:58:47;5.40;;;5.00;;
11245;SDS011;59870;50.106;8.580;2023-02-28T04:01:22;9.90;;;5.33;;
11245;SDS011;59870;50.106;8.580;2023-02-28T04:03:55;6.20;;;5.80;;
11245;SDS011;59870;50.106;8.580;2023-02-28T04:06:22;6.63;;;5.50;;
11245;SDS011;59870;50.106;8.580;2023-02-28T04:08:51;6.37;;;6.00;;
11245;SDS011;59870;50.106;8.580;2023-02-28T04:13:58;8.13;;;5.57;;
11245;SDS011;59870;50.106;8.580;2023-02-28T04:16:25;5.50;;;5.10;;
11245;SDS011;59870;50.106;8.580;2023-02-28T04:19:02;5.90;;;5.43;;
11245;SDS011;59870;50.106;8.580;2023-02-28T04:21:32;5.10;;;4.80;;
11245;SDS011;59870;50.106;8.580;2023-02-28T04:24:06;5.90;;;5.40;;
11245;SDS011;59870;50.106;8.580;2023-02-28T04:26:35;5.73;;;5.33;;
11245;SDS011;59870;50.106;8.580;2023-02-28T04:29:04;5.80;;;5.30;;
11245;SDS011;59870;50.106;8.580;2023-02-28T04:31:34;5.83;;;5.33;;
11245;SDS011;59870;50.106;8.580;2023-02-28T04:34:01;5.50;;;5.20;;
11245;SDS011;59870;50.106;8.580;2023-02-28T04:36:29;6.57;;;5.27;;
11245;SDS011;59870;50.106;8.580;2023-02-28T04:38:57;6.03;;;5.20;;
11245;SDS011;59870;50.106;8.580;2023-02-28T04:41:24;5.77;;;5.37;;
11245;SDS011;59870;50.106;8.580;2023-02-28T04:43:53;6.67;;;5.30;;
11245;SDS011;59870;50.106;8.580;2023-02-28T04:46:21;5.40;;;5.00;;
11245;SDS011;59870;50.106;8.580;2023-02-28T04:48:49;6.07;;;4.50;;
11245;SDS011;59870;50.106;8.580;2023-02-28T04:51:18;5.77;;;5.37;;
11245;SDS011;59870;50.106;8.580;2023-02-28T04:53:46;5.80;;;5.30;;
11245;SDS011;59870;50.106;8.580;2023-02-28T04:56:15;6.10;;;5.60;;
11245;SDS011;59870;50.106;8.580;2023-02-28T04:58:44;5.83;;;5.33;;
11245;SDS011;59870;50.106;8.580;2023-02-28T05:03:48;5.10;;;4.67;;
11245;SDS011;59870;50.106;8.580;2023-02-28T05:06:16;5.83;;;5.37;;
11245;SDS011;59870;50.106;8.580;2023-02-28T05:08:44;4.77;;;4.13;;
11245;SDS011;59870;50.106;8.580;2023-02-28T05:11:14;5.83;;;5.43;;
11245;SDS011;59870;50.106;8.580;2023-02-28T05:13:46;5.13;;;4.83;;
11245;SDS011;59870;50.106;8.580;2023-02-28T05:16:13;5.17;;;4.87;;
11245;SDS011;59870;50.106;8.580;2023-02-28T05:18:41;4.93;;;4.63;;
11245;SDS011;59870;50.106;8.580;2023-02-28T05:21:21;4.60;;;4.30;;
11245;SDS011;59870;50.106;8.580;2023-02-28T05:23:52;4.50;;;4.20;;
11245;SDS011;59870;50.106;8.580;2023-02-28T05:26:19;5.00;;;4.60;;
11245;SDS011;59870;50.106;8.580;2023-02-28T05:28:47;4.70;;;4.40;;
11245;SDS011;59870;50.106;8.580;2023-02-28T05:31:15;4.10;;;3.70;;
11245;SDS011;59870;50.106;8.580;2023-02-28T05:33:43;4.60;;;4.37;;
11245;SDS011;59870;50.106;8.580;2023-02-28T05:36:10;4.50;;;4.20;;
11245;SDS011;59870;50.106;8.580;2023-02-28T05:38:37;4.43;;;4.03;;
11245;SDS011;59870;50.106;8.580;2023-02-28T05:41:08;5.27;;;4.93;;
11245;SDS011;59870;50.106;8.580;2023-02-28T05:43:36;4.77;;;4.30;;
11245;SDS011;59870;50.106;8.580;2023-02-28T05:46:05;4.80;;;4.43;;
11245;SDS011;59870;50.106;8.580;2023-02-28T05:48:35;5.07;;;4.67;;
11245;SDS011;59870;50.106;8.580;2023-02-28T05:51:03;5.03;;;4.27;;
11245;SDS011;59870;50.106;8.580;2023-02-28T05:53:31;4.63;;;4.33;;
11245;SDS011;59870;50.106;8.580;2023-02-28T05:55:59;5.73;;;4.77;;
11245;SDS011;59870;50.106;8.580;2023-02-28T05:58:27;4.77;;;4.37;;
11245;SDS011;59870;50.106;8.580;2023-02-28T06:00:58;7.87;;;3.87;;
11245;SDS011;59870;50.106;8.580;2023-02-28T06:03:26;4.13;;;3.73;;
11245;SDS011;59870;50.106;8.580;2023-02-28T06:05:54;4.80;;;4.50;;
11245;SDS011;59870;50.106;8.580;2023-02-28T06:08:21;5.80;;;4.50;;
11245;SDS011;59870;50.106;8.580;2023-02-28T06:10:49;4.53;;;4.17;;
11245;SDS011;59870;50.106;8.580;2023-02-28T06:13:16;4.63;;;4.33;;
11245;SDS011;59870;50.106;8.580;2023-02-28T06:15:43;5.00;;;4.70;;
11245;SDS011;59870;50.106;8.580;2023-02-28T06:18:11;5.10;;;4.60;;
11245;SDS011;59870;50.106;8.580;2023-02-28T06:20:38;5.13;;;4.83;;
11245;SDS011;59870;50.106;8.580;2023-02-28T06:23:06;5.30;;;4.90;;
11245;SDS011;59870;50.106;8.580;2023-02-28T06:25:33;4.57;;;4.27;;
11245;SDS011;59870;50.106;8.580;2023-02-28T06:28:00;4.70;;;4.40;;
11245;SDS011;59870;50.106;8.580;2023-02-28T06:30:28;5.03;;;4.73;;
11245;SDS011;59870;50.106;8.580;2023-02-28T06:32:56;5.10;;;4.20;;
11245;SDS011;59870;50.106;8.580;2023-02-28T06:35:24;5.13;;;4.47;;
11245;SDS011;59870;50.106;8.580;2023-02-28T06:37:51;5.73;;;5.23;;
11245;SDS011;59870;50.106;8.580;2023-02-28T06:40:18;5.10;;;4.60;;
11245;SDS011;59870;50.106;8.580;2023-02-28T06:42:46;4.87;;;4.27;;
11245;SDS011;59870;50.106;8.580;2023-02-28T06:45:13;4.97;;;4.57;;
11245;SDS011;59870;50.106;8.580;2023-02-28T06:47:41;5.13;;;4.73;;
11245;SDS011;59870;50.106;8.580;2023-02-28T06:50:09;4.87;;;4.57;;
11245;SDS011;59870;50.106;8.580;2023-02-28T06:52:38;5.60;;;5.10;;
11245;SDS011;59870;50.106;8.580;2023-02-28T06:55:06;5.00;;;4.67;;
11245;SDS011;59870;50.106;8.580;2023-02-28T06:57:35;6.63;;;5.50;;
11245;SDS011;59870;50.106;8.580;2023-02-28T07:00:08;5.10;;;4.60;;
11245;SDS011;59870;50.106;8.580;2023-02-28T07:02:36;6.30;;;5.40;;
11245;SDS011;59870;50.106;8.580;2023-02-28T07:05:05;5.60;;;5.20;;
11245;SDS011;59870;50.106;8.580;2023-02-28T07:07:32;5.67;;;5.37;;
11245;SDS011;59870;50.106;8.580;2023-02-28T07:10:00;5.70;;;5.27;;
11245;SDS011;59870;50.106;8.580;2023-02-28T07:12:28;5.87;;;5.50;;
11245;SDS011;59870;50.106;8.580;2023-02-28T07:14:55;5.73;;;5.37;;
11245;SDS011;59870;50.106;8.580;2023-02-28T07:17:23;5.30;;;4.90;;
11245;SDS011;59870;50.106;8.580;2023-02-28T07:19:50;5.80;;;5.40;;
11245;SDS011;59870;50.106;8.580;2023-02-28T07:22:18;6.20;;;5.30;;
11245;SDS011;59870;50.106;8.580;2023-02-28T07:24:45;5.80;;;5.47;;
11245;SDS011;59870;50.106;8.580;2023-02-28T07:27:14;5.77;;;5.27;;
11245;SDS011;59870;50.106;8.580;2023-02-28T07:29:52;5.10;;;4.80;;
11245;SDS011;59870;50.106;8.580;2023-02-28T07:32:25;5.63;;;4.97;;
11245;SDS011;59870;50.106;8.580;2023-02-28T07:34:53;5.70;;;5.20;;
11245;SDS011;59870;50.106;8.580;2023-02-28T07:37:21;6.73;;;5.07;;
11245;SDS011;59870;50.106;8.580;2023-02-28T07:39:49;5.97;;;5.47;;
11245;SDS011;59870;50.106;8.580;2023-02-28T07:42:16;5.30;;;4.80;;
11245;SDS011;59870;50.106;8.580;2023-02-28T07:44:44;5.67;;;5.00;;
11245;SDS011;59870;50.106;8.580;2023-02-28T07:47:12;6.20;;;5.60;;
11245;SDS011;59870;50.106;8.580;2023-02-28T07:49:40;5.37;;;4.90;;
11245;SDS011;59870;50.106;8.580;2023-02-28T07:52:07;5.63;;;5.13;;
11245;SDS011;59870;50.106;8.580;2023-02-28T07:54:37;6.50;;;4.83;;
11245;SDS011;59870;50.106;8.580;2023-02-28T07:57:05;7.00;;;5.00;;
11245;SDS011;59870;50.106;8.580;2023-02-28T07:59:32;6.00;;;4.97;;
11245;SDS011;59870;50.106;8.580;2023-02-28T08:02:00;5.60;;;5.10;;
11245;SDS011;59870;50.106;8.580;2023-02-28T08:04:27;5.87;;;5.37;;
11245;SDS011;59870;50.106;8.580;2023-02-28T08:07:01;6.17;;;5.67;;
11245;SDS011;59870;50.106;8.580;2023-02-28T08:09:33;5.30;;;4.90;;
11245;SDS011;59870;50.106;8.580;2023-02-28T08:12:03;5.83;;;5.23;;
11245;SDS011;59870;50.106;8.580;2023-02-28T08:14:49;5.93;;;5.50;;
11245;SDS011;59870;50.106;8.580;2023-02-28T08:17:16;5.80;;;5.30;;
11245;SDS011;59870;50.106;8.580;2023-02-28T08:19:47;5.40;;;5.10;;
11245;SDS011;59870;50.106;8.580;2023-02-28T08:22:14;6.30;;;5.57;;
11245;SDS011;59870;50.106;8.580;2023-02-28T08:24:42;5.20;;;4.87;;
11245;SDS011;59870;50.106;8.580;2023-02-28T08:30:34;5.03;;;4.63;;
11245;SDS011;59870;50.106;8.580;2023-02-28T08:33:02;4.90;;;4.50;;
11245;SDS011;59870;50.106;8.580;2023-02-28T08:35:35;7.00;;;5.00;;
11245;SDS011;59870;50.106;8.580;2023-02-28T08:38:03;5.23;;;4.87;;
11245;SDS011;59870;50.106;8.580;2023-02-28T08:40:35;5.10;;;4.70;;
11245;SDS011;59870;50.106;8.580;2023-02-28T08:43:03;4.40;;;4.00;;
11245;SDS011;59870;50.106;8.580;2023-02-28T08:45:30;5.30;;;4.93;;
11245;SDS011;59870;50.106;8.580;2023-02-28T08:47:58;4.97;;;4.23;;
11245;SDS011;59870;50.106;8.580;2023-02-28T08:50:26;5.30;;;4.50;;
11245;SDS011;59870;50.106;8.580;2023-02-28T08:52:53;4.07;;;3.77;;
11245;SDS011;59870;50.106;8.580;2023-02-28T08:55:28;4.40;;;4.10;;
11245;SDS011;59870;50.106;8.580;2023-02-28T08:58:36;7.00;;;6.37;;
11245;SDS011;59870;50.106;8.580;2023-02-28T09:01:26;7.17;;;6.57;;
11245;SDS011;59870;50.106;8.580;2023-02-28T09:05:35;4.60;;;4.20;;
11245;SDS011;59870;50.106;8.580;2023-02-28T09:08:05;4.30;;;4.00;;
11245;SDS011;59870;50.106;8.580;2023-02-28T09:10:37;4.63;;;4.33;;
11245;SDS011;59870;50.106;8.580;2023-02-28T09:13:08;4.07;;;3.87;;
11245;SDS011;59870;50.106;8.580;2023-02-28T09:15:38;4.20;;;3.90;;
11245;SDS011;59870;50.106;8.580;2023-02-28T09:18:06;4.63;;;4.33;;
11245;SDS011;59870;50.106;8.580;2023-02-28T09:20:33;4.63;;;4.33;;
11245;SDS011;59870;50.106;8.580;2023-02-28T09:23:01;4.37;;;4.07;;
11245;SDS011;59870;50.106;8.580;2023-02-28T09:25:28;5.63;;;5.07;;
11245;SDS011;59870;50.106;8.580;2023-02-28T09:27:55;4.23;;;4.03;;
11245;SDS011;59870;50.106;8.580;2023-02-28T09:30:23;4.53;;;4.23;;
11245;SDS011;59870;50.106;8.580;2023-02-28T09:32:51;6.03;;;4.50;;
11245;SDS011;59870;50.106;8.580;2023-02-28T09:35:22;4.60;;;4.20;;
11245;SDS011;59870;50.106;8.580;2023-02-28T09:37:51;4.90;;;4.47;;
11245;SDS011;59870;50.106;8.580;2023-02-28T09:40:23;4.60;;;4.20;;
11245;SDS011;59870;50.106;8.580;2023-02-28T09:42:53;4.43;;;4.03;;
11245;SDS011;59870;50.106;8.580;2023-02-28T09:45:24;4.23;;;3.90;;
11245;SDS011;59870;50.106;8.580;2023-02-28T09:47:54;4.23;;;3.93;;
11245;SDS011;59870;50.106;8.580;2023-02-28T09:53:16;5.73;;;5.23;;
11245;SDS011;59870;50.106;8.580;2023-02-28T09:55:50;4.47;;;4.13;;
11245;SDS011;59870;50.106;8.580;2023-02-28T09:58:29;5.30;;;4.90;;
11245;SDS011;59870;50.106;8.580;2023-02-28T10:06:46;4.63;;;4.37;;
11245;SDS011;59870;50.106;8.580;2023-02-28T10:09:18;4.60;;;4.30;;
11245;SDS011;59870;50.106;8.580;2023-02-28T10:11:50;5.07;;;4.67;;
11245;SDS011;59870;50.106;8.580;2023-02-28T10:14:23;5.53;;;4.63;;
11245;SDS011;59870;50.106;8.580;2023-02-28T10:16:55;4.50;;;4.20;;
11245;SDS011;59870;50.106;8.580;2023-02-28T10:23:39;5.20;;;4.83;;
11245;SDS011;59870;50.106;8.580;2023-02-28T10:26:09;5.80;;;5.30;;
11245;SDS011;59870;50.106;8.580;2023-02-28T10:28:40;4.97;;;4.67;;
11245;SDS011;59870;50.106;8.580;2023-02-28T10:31:09;5.23;;;4.93;;
11245;SDS011;59870;50.106;8.580;2023-02-28T10:33:41;5.57;;;5.17;;
11245;SDS011;59870;50.106;8.580;2023-02-28T10:36:11;5.33;;;4.90;;
11245;SDS011;59870;50.106;8.580;2023-02-28T10:38:42;6.27;;;4.93;;
11245;SDS011;59870;50.106;8.580;2023-02-28T10:41:11;5.07;;;4.60;;
11245;SDS011;59870;50.106;8.580;2023-02-28T10:44:11;4.80;;;4.50;;
11245;SDS011;59870;50.106;8.580;2023-02-28T10:46:50;6.10;;;5.60;;
11245;SDS011;59870;50.106;8.580;2023-02-28T10:49:20;5.10;;;4.80;;
11245;SDS011;59870;50.106;8.580;2023-02-28T10:51:59;5.53;;;5.13;;
11245;SDS011;59870;50.106;8.580;2023-02-28T10:54:35;5.00;;;4.70;;
11245;SDS011;59870;50.106;8.580;2023-02-28T10:57:09;5.50;;;5.10;;
11245;SDS011;59870;50.106;8.580;2023-02-28T10:59:46;8.80;;;5.53;;
11245;SDS011;59870;50.106;8.580;2023-02-28T11:02:32;5.50;;;5.00;;
11245;SDS011;59870;50.106;8.580;2023-02-28T11:05:02;5.57;;;5.17;;
11245;SDS011;59870;50.106;8.580;2023-02-28T11:07:53;4.80;;;4.40;;
11245;SDS011;59870;50.106;8.580;2023-02-28T11:10:44;4.53;;;4.13;;
11245;SDS011;59870;50.106;8.580;2023-02-28T11:13:17;5.27;;;4.87;;
11245;SDS011;59870;50.106;8.580;2023-02-28T11:15:56;4.97;;;4.57;;
11245;SDS011;59870;50.106;8.580;2023-02-28T11:18:27;6.43;;;5.93;;
11245;SDS011;59870;50.106;8.580;2023-02-28T11:20:59;7.00;;;6.40;;
11245;SDS011;59870;50.106;8.580;2023-02-28T11:23:29;5.33;;;4.97;;
11245;SDS011;59870;50.106;8.580;2023-02-28T11:26:03;11.33;;;8.27;;
11245;SDS011;59870;50.106;8.580;2023-02-28T11:28:32;5.50;;;5.00;;
11245;SDS011;59870;50.106;8.580;2023-02-28T11:31:03;6.03;;;5.53;;
11245;SDS011;59870;50.106;8.580;2023-02-28T11:33:43;5.30;;;4.90;;
11245;SDS011;59870;50.106;8.580;2023-02-28T11:36:18;6.30;;;4.33;;
11245;SDS011;59870;50.106;8.580;2023-02-28T11:38:54;5.07;;;4.50;;
11245;SDS011;59870;50.106;8.580;2023-02-28T11:47:11;4.90;;;4.60;;
11245;SDS011;59870;50.106;8.580;2023-02-28T11:49:51;5.93;;;5.53;;
11245;SDS011;59870;50.106;8.580;2023-02-28T11:55:17;5.67;;;5.13;;
11245;SDS011;59870;50.106;8.580;2023-02-28T11:58:04;6.10;;;5.60;;
11245;SDS011;59870;50.106;8.580;2023-02-28T12:06:18;6.37;;;5.87;;
11245;SDS011;59870;50.106;8.580;2023-02-28T12:12:13;5.53;;;5.20;;
11245;SDS011;59870;50.106;8.580;2023-02-28T12:17:47;6.10;;;5.60;;
11245;SDS011;59870;50.106;8.580;2023-02-28T12:23:22;6.20;;;5.70;;
11245;SDS011;59870;50.106;8.580;2023-02-28T12:26:04;5.17;;;4.67;;
11245;SDS011;59870;50.106;8.580;2023-02-28T12:28:45;5.97;;;5.57;;
11245;SDS011;59870;50.106;8.580;2023-02-28T12:31:20;5.40;;;5.10;;
11245;SDS011;59870;50.106;8.580;2023-02-28T12:33:56;5.63;;;5.20;;
11245;SDS011;59870;50.106;8.580;2023-02-28T12:40:54;5.47;;;5.07;;
11245;SDS011;59870;50.106;8.580;2023-02-28T12:43:58;5.33;;;5.03;;
11245;SDS011;59870;50.106;8.580;2023-02-28T12:46:37;6.47;;;5.97;;
11245;SDS011;59870;50.106;8.580;2023-02-28T12:49:10;6.10;;;5.60;;
11245;SDS011;59870;50.106;8.580;2023-02-28T12:51:52;6.20;;;5.70;;
11245;SDS011;59870;50.106;8.580;2023-02-28T12:54:24;6.40;;;6.00;;
11245;SDS011;59870;50.106;8.580;2023-02-28T12:59:29;6.70;;;5.87;;
11245;SDS011;59870;50.106;8.580;2023-02-28T13:11:04;5.40;;;5.03;;
11245;SDS011;59870;50.106;8.580;2023-02-28T13:13:45;6.40;;;5.90;;
11245;SDS011;59870;50.106;8.580;2023-02-28T13:16:13;6.80;;;6.20;;
11245;SDS011;59870;50.106;8.580;2023-02-28T13:18:43;6.37;;;5.73;;
11245;SDS011;59870;50.106;8.580;2023-02-28T13:21:23;6.63;;;6.07;;
11245;SDS011;59870;50.106;8.580;2023-02-28T13:29:50;6.43;;;5.87;;
11245;SDS011;59870;50.106;8.580;2023-02-28T13:34:34;7.10;;;6.40;;
11245;SDS011;59870;50.106;8.580;2023-02-28T13:37:36;6.40;;;5.90;;
11245;SDS011;59870;50.106;8.580;2023-02-28T13:47:42;6.20;;;5.80;;
11245;SDS011;59870;50.106;8.580;2023-02-28T13:50:22;6.40;;;5.93;;
11245;SDS011;59870;50.106;8.580;2023-02-28T13:55:56;6.30;;;5.70;;
11245;SDS011;59870;50.106;8.580;2023-02-28T14:04:44;6.97;;;6.40;;
11245;SDS011;59870;50.106;8.580;2023-02-28T14:07:20;6.73;;;5.90;;
11245;SDS011;59870;50.106;8.580;2023-02-28T14:09:56;6.17;;;5.70;;
11245;SDS011;59870;50.106;8.580;2023-02-28T14:18:15;8.50;;;6.50;;
11245;SDS011;59870;50.106;8.580;2023-02-28T14:20:47;8.37;;;6.50;;
11245;SDS011;59870;50.106;8.580;2023-02-28T14:23:30;6.50;;;6.00;;
11245;SDS011;59870;50.106;8.580;2023-02-28T14:32:05;6.40;;;5.93;;
11245;SDS011;59870;50.106;8.580;2023-02-28T14:37:43;6.13;;;5.70;;
11245;SDS011;59870;50.106;8.580;2023-02-28T14:40:15;6.33;;;5.93;;
11245;SDS011;59870;50.106;8.580;2023-02-28T14:42:57;6.20;;;5.80;;
11245;SDS011;59870;50.106;8.580;2023-02-28T14:45:28;6.10;;;5.70;;
11245;SDS011;59870;50.106;8.580;2023-02-28T14:47:57;6.20;;;5.77;;
11245;SDS011;59870;50.106;8.580;2023-02-28T14:50:35;6.47;;;5.87;;
11245;SDS011;59870;50.106;8.580;2023-02-28T14:53:04;6.70;;;6.10;;
11245;SDS011;59870;50.106;8.580;2023-02-28T14:55:44;6.93;;;6.33;;
11245;SDS011;59870;50.106;8.580;2023-02-28T14:58:20;6.00;;;5.60;;
11245;SDS011;59870;50.106;8.580;2023-02-28T15:00:51;7.43;;;6.73;;
11245;SDS011;59870;50.106;8.580;2023-02-28T15:03:24;6.13;;;5.53;;
11245;SDS011;59870;50.106;8.580;2023-02-28T15:06:11;6.83;;;6.33;;
11245;SDS011;59870;50.106;8.580;2023-02-28T15:08:40;6.90;;;6.30;;
11245;SDS011;59870;50.106;8.580;2023-02-28T15:11:11;7.13;;;6.50;;
11245;SDS011;59870;50.106;8.580;2023-02-28T15:13:43;6.80;;;6.27;;
11245;SDS011;59870;50.106;8.580;2023-02-28T15:16:23;8.27;;;6.90;;
11245;SDS011;59870;50.106;8.580;2023-02-28T15:19:05;6.73;;;6.23;;
11245;SDS011;59870;50.106;8.580;2023-02-28T15:21:53;6.90;;;6.20;;
11245;SDS011;59870;50.106;8.580;2023-02-28T15:24:44;6.43;;;6.03;;
11245;SDS011;59870;50.106;8.580;2023-02-28T15:27:26;6.40;;;5.90;;
11245;SDS011;59870;50.106;8.580;2023-02-28T15:29:58;7.13;;;6.70;;
11245;SDS011;59870;50.106;8.580;2023-02-28T15:32:33;8.70;;;6.13;;
11245;SDS011;59870;50.106;8.580;2023-02-28T15:35:27;7.37;;;6.27;;
11245;SDS011;59870;50.106;8.580;2023-02-28T15:37:58;6.97;;;6.37;;
11245;SDS011;59870;50.106;8.580;2023-02-28T15:40:45;7.43;;;6.57;;
11245;SDS011;59870;50.106;8.580;2023-02-28T15:43:27;7.13;;;5.37;;
11245;SDS011;59870;50.106;8.580;2023-02-28T15:45:59;5.93;;;5.53;;
11245;SDS011;59870;50.106;8.580;2023-02-28T15:48:34;6.20;;;5.80;;
11245;SDS011;59870;50.106;8.580;2023-02-28T15:51:18;6.30;;;5.73;;
11245;SDS011;59870;50.106;8.580;2023-02-28T15:53:50;6.27;;;5.77;;
11245;SDS011;59870;50.106;8.580;2023-02-28T15:56:42;6.40;;;5.90;;
11245;SDS011;59870;50.106;8.580;2023-02-28T15:59:20;6.93;;;6.33;;
11245;SDS011;59870;50.106;8.580;2023-02-28T16:04:53;6.53;;;6.10;;
11245;SDS011;59870;50.106;8.580;2023-02-28T16:07:42;6.50;;;6.10;;
11245;SDS011;59870;50.106;8.580;2023-02-28T16:10:11;7.47;;;6.87;;
11245;SDS011;59870;50.106;8.580;2023-02-28T16:12:41;6.83;;;6.33;;
11245;SDS011;59870;50.106;8.580;2023-02-28T16:15:18;8.90;;;6.73;;
11245;SDS011;59870;50.106;8.580;2023-02-28T16:17:47;7.83;;;7.20;;
11245;SDS011;59870;50.106;8.580;2023-02-28T16:20:15;7.43;;;6.90;;
11245;SDS011;59870;50.106;8.580;2023-02-28T16:22:48;7.57;;;6.80;;
11245;SDS011;59870;50.106;8.580;2023-02-28T16:25:17;6.80;;;6.30;;
11245;SDS011;59870;50.106;8.580;2023-02-28T16:27:48;7.77;;;6.90;;
11245;SDS011;59870;50.106;8.580;2023-02-28T16:30:22;7.67;;;6.97;;
11245;SDS011;59870;50.106;8.580;2023-02-28T16:32:51;7.17;;;6.67;;
11245;SDS011;59870;50.106;8.580;2023-02-28T16:35:19;8.00;;;7.20;;
11245;SDS011;59870;50.106;8.580;2023-02-28T16:37:46;7.70;;;7.10;;
11245;SDS011;59870;50.106;8.580;2023-02-28T16:40:15;8.20;;;6.70;;
11245;SDS011;59870;50.106;8.580;2023-02-28T16:42:44;8.00;;;7.23;;
11245;SDS011;59870;50.106;8.580;2023-02-28T16:45:26;6.80;;;6.30;;
11245;SDS011;59870;50.106;8.580;2023-02-28T16:47:55;7.30;;;6.60;;
11245;SDS011;59870;50.106;8.580;2023-02-28T16:50:28;7.37;;;6.67;;
11245;SDS011;59870;50.106;8.580;2023-02-28T16:52:57;7.53;;;6.93;;
11245;SDS011;59870;50.106;8.580;2023-02-28T16:55:25;7.23;;;6.63;;
11245;SDS011;59870;50.106;8.580;2023-02-28T16:57:54;7.47;;;6.87;;
11245;SDS011;59870;50.106;8.580;2023-02-28T17:00:24;7.60;;;7.00;;
11245;SDS011;59870;50.106;8.580;2023-02-28T17:02:53;7.70;;;7.00;;
11245;SDS011;59870;50.106;8.580;2023-02-28T17:05:21;7.43;;;6.83;;
11245;SDS011;59870;50.106;8.580;2023-02-28T17:07:49;7.57;;;6.87;;
11245;SDS011;59870;50.106;8.580;2023-02-28T17:10:18;7.20;;;6.50;;
11245;SDS011;59870;50.106;8.580;2023-02-28T17:12:51;7.40;;;6.80;;
11245;SDS011;59870;50.106;8.580;2023-02-28T17:15:29;8.93;;;8.20;;
11245;SDS011;59870;50.106;8.580;2023-02-28T17:17:57;7.63;;;7.03;;
11245;SDS011;59870;50.106;8.580;2023-02-28T17:20:25;7.03;;;6.43;;
11245;SDS011;59870;50.106;8.580;2023-02-28T17:22:53;7.40;;;6.70;;
11245;SDS011;59870;50.106;8.580;2023-02-28T17:25:21;6.67;;;6.17;;
11245;SDS011;59870;50.106;8.580;2023-02-28T17:27:50;7.87;;;7.27;;
11245;SDS011;59870;50.106;8.580;2023-02-28T17:30:22;7.17;;;6.50;;
11245;SDS011;59870;50.106;8.580;2023-02-28T17:32:51;7.03;;;6.33;;
11245;SDS011;59870;50.106;8.580;2023-02-28T17:35:19;7.67;;;6.97;;
11245;SDS011;59870;50.106;8.580;2023-02-28T17:37:46;7.57;;;6.97;;